Syosyun — JD2406 — position and weather

sailwx.info

Track history (hours):
 
Tides and Currents Weather Stations Pressure Air Temp Water Temp Dewpoint Dewpoint Depression Visibility Wind Speed Wind Dir Waves Ship Positions

Syosyun

Last reported at 2018-Feb-18 23:58 UTC. Time now 2018-Feb-19 00:06 UTC.
Position N 35°27' E 139°42'.

Length 74 m; draft 4.2 m.

Type: Cargo ship. MMSI: 431000201.

Date/timePositionNaut miles runAvg speedWind from/ knotsBaromVisibWave heightAir tempDewpointWater temp
2018-Feb-18 23:58N 35°27' E 139°42'0 0.0
2018-Feb-18 23:28N 35°27' E 139°42'1 1.1
2018-Feb-18 23:00N 35°26' E 139°42'5 9.8
2018-Feb-18 22:30N 35°21' E 139°43'510.2
2018-Feb-18 22:00N 35°17' E 139°46'510.1
2018-Feb-18 21:30N 35°12' E 139°47'510.2
2018-Feb-18 21:00N 35°07' E 139°45'510.0
2018-Feb-18 20:30N 35°03' E 139°42'610.1
2018-Feb-18 19:57N 34°59' E 139°37'1310.4
2018-Feb-18 18:41N 34°52' E 139°23'711.4
2018-Feb-18 18:05N 34°48' E 139°17'111.2
2018-Feb-18 18:00N 34°47' E 139°16'911.5
2018-Feb-18 17:14N 34°42' E 139°08'310.7
2018-Feb-18 16:58N 34°40' E 139°05'511.1
2018-Feb-18 16:30N 34°37' E 138°60'711.1
2018-Feb-18 15:52N 34°35' E 138°51'810.2
2018-Feb-18 15:07N 34°35' E 138°42'210.5
2018-Feb-18 14:55N 34°35' E 138°40'910.8
2018-Feb-18 14:04N 34°34' E 138°28'174 9.0
2018-Feb-17 18:41N 33°48' E 135°05'311.5
2018-Feb-17 18:27N 33°50' E 135°03'511.4
2018-Feb-17 18:00N 33°54' E 134°59'611.0
2018-Feb-17 17:30N 33°58' E 134°55'611.2
2018-Feb-17 16:59N 34°02' E 134°51'511.3
2018-Feb-17 16:30N 34°07' E 134°46'712.0
2018-Feb-17 15:56N 34°12' E 134°41'511.9
2018-Feb-17 15:30N 34°16' E 134°38'611.2
2018-Feb-17 15:00N 34°22' E 134°39'510.8
2018-Feb-17 14:30N 34°27' E 134°40'510.9
2018-Feb-17 14:00N 34°33' E 134°41'510.6
2018-Feb-17 13:30N 34°37' E 134°44'510.4
2018-Feb-17 13:00N 34°42' E 134°48'2 0.1
2018-Feb-16 22:28N 34°44' E 134°49'2 4.4
2018-Feb-16 22:00N 34°42' E 134°50'1 0.9
2018-Feb-16 21:26N 34°42' E 134°50'0 0.0
2018-Feb-16 20:56N 34°42' E 134°50'0 0.0
2018-Feb-16 20:26N 34°42' E 134°50'0 0.0
2018-Feb-16 19:56N 34°42' E 134°50'0 0.0
2018-Feb-16 19:26N 34°42' E 134°50'0 0.0
2018-Feb-16 18:56N 34°42' E 134°50'0 0.0
2018-Feb-16 18:26N 34°42' E 134°50'0 0.1
2018-Feb-16 17:59N 34°42' E 134°50'0 0.1
2018-Feb-16 17:26N 34°42' E 134°50'0 0.0
2018-Feb-16 16:56N 34°42' E 134°50'0 0.1
2018-Feb-16 16:20N 34°42' E 134°50'0 0.1
2018-Feb-16 15:44N 34°42' E 134°50'0 0.0
2018-Feb-16 15:26N 34°42' E 134°50'0 0.1
2018-Feb-16 14:56N 34°42' E 134°50'0 0.0
2018-Feb-16 14:20N 34°42' E 134°50'0 0.1
2018-Feb-16 13:56N 34°42' E 134°50'0 0.0
2018-Feb-16 13:26N 34°42' E 134°50'0 0.0
2018-Feb-16 12:59N 34°42' E 134°50'0 0.0
2018-Feb-16 12:20N 34°42' E 134°50'0 0.0
2018-Feb-16 11:38N 34°42' E 134°50'0 0.1
2018-Feb-16 11:26N 34°42' E 134°50'0 0.0
2018-Feb-16 10:59N 34°42' E 134°50'0 0.0
2018-Feb-16 10:26N 34°42' E 134°50'0 0.1
2018-Feb-16 10:00N 34°42' E 134°50'4 8.7
2018-Feb-16 09:30N 34°38' E 134°52'611.3
2018-Feb-16 09:00N 34°38' E 134°59'510.0
2018-Feb-16 08:31N 34°36' E 135°04'611.2
2018-Feb-16 08:01N 34°36' E 135°11'611.1
2018-Feb-16 07:30N 34°36' E 135°18'510.7
2018-Feb-16 07:00N 34°39' E 135°24'2 4.2
2018-Feb-16 06:28N 34°40' E 135°25'0 0.0
2018-Feb-16 05:58N 34°40' E 135°25'0 0.0
2018-Feb-16 05:28N 34°40' E 135°25'0 0.0
2018-Feb-16 04:52N 34°40' E 135°25'0 0.0
2018-Feb-16 04:28N 34°40' E 135°25'0 0.0
2018-Feb-16 03:58N 34°40' E 135°25'0 0.0
2018-Feb-16 03:28N 34°40' E 135°25'0 0.0
2018-Feb-16 02:58N 34°40' E 135°25'0 0.0
2018-Feb-16 02:28N 34°40' E 135°25'0 0.0
2018-Feb-16 01:58N 34°40' E 135°25'0 0.0
2018-Feb-16 01:28N 34°40' E 135°25'0 0.0
2018-Feb-16 00:58N 34°40' E 135°25'0 0.0
2018-Feb-16 00:28N 34°40' E 135°25'3 6.9
2018-Feb-16 00:01N 34°38' E 135°23'510.4
2018-Feb-15 23:31N 34°36' E 135°17'510.4
2018-Feb-15 23:01N 34°35' E 135°11'510.4
2018-Feb-15 22:30N 34°35' E 135°04'4 7.4
2018-Feb-15 22:00N 34°37' E 135°01'4 8.2
2018-Feb-15 21:30N 34°36' E 134°56'5 9.1
2018-Feb-15 21:00N 34°38' E 134°51'5 9.1
2018-Feb-15 20:30N 34°42' E 134°48'1 0.1
2018-Feb-15 11:01N 34°43' E 134°48'0 7.2
2018-Feb-15 11:00N 34°43' E 134°48'5 9.0
2018-Feb-15 10:30N 34°43' E 134°43'0 0.1
2018-Feb-15 07:42N 34°43' E 134°43'0 0.0
2018-Feb-15 07:15N 34°43' E 134°43'0 0.0
2018-Feb-15 06:57N 34°43' E 134°43'0 0.0
2018-Feb-15 06:21N 34°43' E 134°43'0 0.0
2018-Feb-15 05:51N 34°43' E 134°43'0 0.0
2018-Feb-15 05:21N 34°43' E 134°43'0 0.0
2018-Feb-15 04:15N 34°43' E 134°43'0 0.0
2018-Feb-15 03:57N 34°43' E 134°43'0 0.0
2018-Feb-15 03:27N 34°43' E 134°43'0 0.0
2018-Feb-15 02:57N 34°43' E 134°43'0 0.3
2018-Feb-15 02:30N 34°43' E 134°43'5 9.3
2018-Feb-15 02:00N 34°46' E 134°38'1 0.1
2018-Feb-14 17:49N 34°47' E 134°38'1 3.6
2018-Feb-14 17:30N 34°46' E 134°38'1 1.9
2018-Feb-14 16:57N 34°46' E 134°39'0 0.0
2018-Feb-14 16:27N 34°46' E 134°39'0 0.0
2018-Feb-14 15:51N 34°46' E 134°39'0 0.0
2018-Feb-14 15:21N 34°46' E 134°39'0 0.0
2018-Feb-14 14:57N 34°46' E 134°39'0 0.0
2018-Feb-14 14:09N 34°46' E 134°39'0 0.0
2018-Feb-14 13:51N 34°46' E 134°39'0 0.0
2018-Feb-14 13:21N 34°46' E 134°39'0 0.0
2018-Feb-14 12:51N 34°46' E 134°39'0 0.0
2018-Feb-14 12:27N 34°46' E 134°39'0 0.0
2018-Feb-14 11:57N 34°46' E 134°39'0 0.0
2018-Feb-14 11:27N 34°46' E 134°39'0 0.0
2018-Feb-14 10:57N 34°46' E 134°39'0 0.0
2018-Feb-14 10:27N 34°46' E 134°39'0 0.0
2018-Feb-14 08:39N 34°46' E 134°39'0 0.0
2018-Feb-14 08:29N 34°46' E 134°39'0 0.0
2018-Feb-14 08:00N 34°46' E 134°39'0 0.0
2018-Feb-14 07:29N 34°46' E 134°39'0 0.0
2018-Feb-14 06:58N 34°46' E 134°39'0 0.0
2018-Feb-14 06:29N 34°46' E 134°39'0 0.0
2018-Feb-14 05:47N 34°46' E 134°39'0 0.0
2018-Feb-14 03:17N 34°46' E 134°39'0 0.0
2018-Feb-14 03:00N 34°46' E 134°39'0 0.0
2018-Feb-14 02:29N 34°46' E 134°39'0 0.0
2018-Feb-14 01:58N 34°46' E 134°39'2 2.8
2018-Feb-14 01:20N 34°45' E 134°39'410.4
2018-Feb-14 00:59N 34°41' E 134°38'610.7
2018-Feb-14 00:28N 34°36' E 134°37'510.7
2018-Feb-14 00:00N 34°31' E 134°38'510.6
2018-Feb-13 23:30N 34°25' E 134°38'510.6
2018-Feb-13 23:00N 34°20' E 134°38'612.1
2018-Feb-13 22:28N 34°14' E 134°39'611.3
2018-Feb-13 21:57N 34°09' E 134°44'510.6
2018-Feb-13 21:30N 34°06' E 134°48'510.7
2018-Feb-13 21:01N 34°02' E 134°52'510.7
2018-Feb-13 20:31N 33°58' E 134°56'610.9
2018-Feb-13 19:59N 33°53' E 135°01'165 7.8
2018-Feb-12 22:54N 34°34' E 138°15'4 8.7
2018-Feb-12 22:30N 34°35' E 138°19'5 8.5
2018-Feb-12 21:56N 34°36' E 138°25'4 8.4
2018-Feb-12 21:25N 34°37' E 138°30'4 7.8
2018-Feb-12 20:57N 34°38' E 138°34'4 7.6
2018-Feb-12 20:24N 34°37' E 138°39'6 7.2
2018-Feb-12 19:35N 34°35' E 138°46'1 6.7
2018-Feb-12 19:27N 34°35' E 138°47'3 6.3
2018-Feb-12 18:59N 34°35' E 138°51'4 7.5
2018-Feb-12 18:29N 34°36' E 138°55'7 8.8
2018-Feb-12 17:43N 34°40' E 139°02'2 9.2
2018-Feb-12 17:29N 34°41' E 139°03'7 9.2
2018-Feb-12 16:45N 34°46' E 139°08'2 8.8
2018-Feb-12 16:28N 34°48' E 139°11'  
2018-Feb-09 09:00N 35°26' E 139°46'611.1
2018-Feb-09 08:30N 35°30' E 139°51'  
Track history (hours):
 
Tides and Currents Weather Stations Pressure Air Temp Water Temp Dewpoint Dewpoint Depression Visibility Wind Speed Wind Dir Waves Ship Positions

Syosyun

Last reported at 2018-Feb-18 23:58 UTC. Time now 2018-Feb-19 00:06 UTC.
Position N 35°27' E 139°42'.

Length 74 m; draft 4.2 m.

Type: Cargo ship. MMSI: 431000201.

Date/timePositionNaut miles runAvg speedWind from/ knotsBaromVisibWave heightAir tempDewpointWater temp
2018-Feb-18 23:58N 35°27' E 139°42'0 0.0
2018-Feb-18 23:28N 35°27' E 139°42'1 1.1
2018-Feb-18 23:00N 35°26' E 139°42'5 9.8
2018-Feb-18 22:30N 35°21' E 139°43'510.2
2018-Feb-18 22:00N 35°17' E 139°46'510.1
2018-Feb-18 21:30N 35°12' E 139°47'510.2
2018-Feb-18 21:00N 35°07' E 139°45'510.0
2018-Feb-18 20:30N 35°03' E 139°42'610.1
2018-Feb-18 19:57N 34°59' E 139°37'1310.4
2018-Feb-18 18:41N 34°52' E 139°23'711.4
2018-Feb-18 18:05N 34°48' E 139°17'111.2
2018-Feb-18 18:00N 34°47' E 139°16'911.5
2018-Feb-18 17:14N 34°42' E 139°08'310.7
2018-Feb-18 16:58N 34°40' E 139°05'511.1
2018-Feb-18 16:30N 34°37' E 138°60'711.1
2018-Feb-18 15:52N 34°35' E 138°51'810.2
2018-Feb-18 15:07N 34°35' E 138°42'210.5
2018-Feb-18 14:55N 34°35' E 138°40'910.8
2018-Feb-18 14:04N 34°34' E 138°28'174 9.0
2018-Feb-17 18:41N 33°48' E 135°05'311.5
2018-Feb-17 18:27N 33°50' E 135°03'511.4
2018-Feb-17 18:00N 33°54' E 134°59'611.0
2018-Feb-17 17:30N 33°58' E 134°55'611.2
2018-Feb-17 16:59N 34°02' E 134°51'511.3
2018-Feb-17 16:30N 34°07' E 134°46'712.0
2018-Feb-17 15:56N 34°12' E 134°41'511.9
2018-Feb-17 15:30N 34°16' E 134°38'611.2
2018-Feb-17 15:00N 34°22' E 134°39'510.8
2018-Feb-17 14:30N 34°27' E 134°40'510.9
2018-Feb-17 14:00N 34°33' E 134°41'510.6
2018-Feb-17 13:30N 34°37' E 134°44'510.4
2018-Feb-17 13:00N 34°42' E 134°48'2 0.1
2018-Feb-16 22:28N 34°44' E 134°49'2 4.4
2018-Feb-16 22:00N 34°42' E 134°50'1 0.9
2018-Feb-16 21:26N 34°42' E 134°50'0 0.0
2018-Feb-16 20:56N 34°42' E 134°50'0 0.0
2018-Feb-16 20:26N 34°42' E 134°50'0 0.0
2018-Feb-16 19:56N 34°42' E 134°50'0 0.0
2018-Feb-16 19:26N 34°42' E 134°50'0 0.0
2018-Feb-16 18:56N 34°42' E 134°50'0 0.0
2018-Feb-16 18:26N 34°42' E 134°50'0 0.1
2018-Feb-16 17:59N 34°42' E 134°50'0 0.1
2018-Feb-16 17:26N 34°42' E 134°50'0 0.0
2018-Feb-16 16:56N 34°42' E 134°50'0 0.1
2018-Feb-16 16:20N 34°42' E 134°50'0 0.1
2018-Feb-16 15:44N 34°42' E 134°50'0 0.0
2018-Feb-16 15:26N 34°42' E 134°50'0 0.1
2018-Feb-16 14:56N 34°42' E 134°50'0 0.0
2018-Feb-16 14:20N 34°42' E 134°50'0 0.1
2018-Feb-16 13:56N 34°42' E 134°50'0 0.0
2018-Feb-16 13:26N 34°42' E 134°50'0 0.0
2018-Feb-16 12:59N 34°42' E 134°50'0 0.0
2018-Feb-16 12:20N 34°42' E 134°50'0 0.0
2018-Feb-16 11:38N 34°42' E 134°50'0 0.1
2018-Feb-16 11:26N 34°42' E 134°50'0 0.0
2018-Feb-16 10:59N 34°42' E 134°50'0 0.0
2018-Feb-16 10:26N 34°42' E 134°50'0 0.1
2018-Feb-16 10:00N 34°42' E 134°50'4 8.7
2018-Feb-16 09:30N 34°38' E 134°52'611.3
2018-Feb-16 09:00N 34°38' E 134°59'510.0
2018-Feb-16 08:31N 34°36' E 135°04'611.2
2018-Feb-16 08:01N 34°36' E 135°11'611.1
2018-Feb-16 07:30N 34°36' E 135°18'510.7
2018-Feb-16 07:00N 34°39' E 135°24'2 4.2
2018-Feb-16 06:28N 34°40' E 135°25'0 0.0
2018-Feb-16 05:58N 34°40' E 135°25'0 0.0
2018-Feb-16 05:28N 34°40' E 135°25'0 0.0
2018-Feb-16 04:52N 34°40' E 135°25'0 0.0
2018-Feb-16 04:28N 34°40' E 135°25'0 0.0
2018-Feb-16 03:58N 34°40' E 135°25'0 0.0
2018-Feb-16 03:28N 34°40' E 135°25'0 0.0
2018-Feb-16 02:58N 34°40' E 135°25'0 0.0
2018-Feb-16 02:28N 34°40' E 135°25'0 0.0
2018-Feb-16 01:58N 34°40' E 135°25'0 0.0
2018-Feb-16 01:28N 34°40' E 135°25'0 0.0
2018-Feb-16 00:58N 34°40' E 135°25'0 0.0
2018-Feb-16 00:28N 34°40' E 135°25'3 6.9
2018-Feb-16 00:01N 34°38' E 135°23'510.4
2018-Feb-15 23:31N 34°36' E 135°17'510.4
2018-Feb-15 23:01N 34°35' E 135°11'510.4
2018-Feb-15 22:30N 34°35' E 135°04'4 7.4
2018-Feb-15 22:00N 34°37' E 135°01'4 8.2
2018-Feb-15 21:30N 34°36' E 134°56'5 9.1
2018-Feb-15 21:00N 34°38' E 134°51'5 9.1
2018-Feb-15 20:30N 34°42' E 134°48'1 0.1
2018-Feb-15 11:01N 34°43' E 134°48'0 7.2
2018-Feb-15 11:00N 34°43' E 134°48'5 9.0
2018-Feb-15 10:30N 34°43' E 134°43'0 0.1
2018-Feb-15 07:42N 34°43' E 134°43'0 0.0
2018-Feb-15 07:15N 34°43' E 134°43'0 0.0
2018-Feb-15 06:57N 34°43' E 134°43'0 0.0
2018-Feb-15 06:21N 34°43' E 134°43'0 0.0
2018-Feb-15 05:51N 34°43' E 134°43'0 0.0
2018-Feb-15 05:21N 34°43' E 134°43'0 0.0
2018-Feb-15 04:15N 34°43' E 134°43'0 0.0
2018-Feb-15 03:57N 34°43' E 134°43'0 0.0
2018-Feb-15 03:27N 34°43' E 134°43'0 0.0
2018-Feb-15 02:57N 34°43' E 134°43'0 0.3
2018-Feb-15 02:30N 34°43' E 134°43'5 9.3
2018-Feb-15 02:00N 34°46' E 134°38'1 0.1
2018-Feb-14 17:49N 34°47' E 134°38'1 3.6
2018-Feb-14 17:30N 34°46' E 134°38'1 1.9
2018-Feb-14 16:57N 34°46' E 134°39'0 0.0
2018-Feb-14 16:27N 34°46' E 134°39'0 0.0
2018-Feb-14 15:51N 34°46' E 134°39'0 0.0
2018-Feb-14 15:21N 34°46' E 134°39'0 0.0
2018-Feb-14 14:57N 34°46' E 134°39'0 0.0
2018-Feb-14 14:09N 34°46' E 134°39'0 0.0
2018-Feb-14 13:51N 34°46' E 134°39'0 0.0
2018-Feb-14 13:21N 34°46' E 134°39'0 0.0
2018-Feb-14 12:51N 34°46' E 134°39'0 0.0
2018-Feb-14 12:27N 34°46' E 134°39'0 0.0
2018-Feb-14 11:57N 34°46' E 134°39'0 0.0
2018-Feb-14 11:27N 34°46' E 134°39'0 0.0
2018-Feb-14 10:57N 34°46' E 134°39'0 0.0
2018-Feb-14 10:27N 34°46' E 134°39'0 0.0
2018-Feb-14 08:39N 34°46' E 134°39'0 0.0
2018-Feb-14 08:29N 34°46' E 134°39'0 0.0
2018-Feb-14 08:00N 34°46' E 134°39'0 0.0
2018-Feb-14 07:29N 34°46' E 134°39'0 0.0
2018-Feb-14 06:58N 34°46' E 134°39'0 0.0
2018-Feb-14 06:29N 34°46' E 134°39'0 0.0
2018-Feb-14 05:47N 34°46' E 134°39'0 0.0
2018-Feb-14 03:17N 34°46' E 134°39'0 0.0
2018-Feb-14 03:00N 34°46' E 134°39'0 0.0
2018-Feb-14 02:29N 34°46' E 134°39'0 0.0
2018-Feb-14 01:58N 34°46' E 134°39'2 2.8
2018-Feb-14 01:20N 34°45' E 134°39'410.4
2018-Feb-14 00:59N 34°41' E 134°38'610.7
2018-Feb-14 00:28N 34°36' E 134°37'510.7
2018-Feb-14 00:00N 34°31' E 134°38'510.6
2018-Feb-13 23:30N 34°25' E 134°38'510.6
2018-Feb-13 23:00N 34°20' E 134°38'612.1
2018-Feb-13 22:28N 34°14' E 134°39'611.3
2018-Feb-13 21:57N 34°09' E 134°44'510.6
2018-Feb-13 21:30N 34°06' E 134°48'510.7
2018-Feb-13 21:01N 34°02' E 134°52'510.7
2018-Feb-13 20:31N 33°58' E 134°56'610.9
2018-Feb-13 19:59N 33°53' E 135°01'165 7.8
2018-Feb-12 22:54N 34°34' E 138°15'4 8.7
2018-Feb-12 22:30N 34°35' E 138°19'5 8.5
2018-Feb-12 21:56N 34°36' E 138°25'4 8.4
2018-Feb-12 21:25N 34°37' E 138°30'4 7.8
2018-Feb-12 20:57N 34°38' E 138°34'4 7.6
2018-Feb-12 20:24N 34°37' E 138°39'6 7.2
2018-Feb-12 19:35N 34°35' E 138°46'1 6.7
2018-Feb-12 19:27N 34°35' E 138°47'3 6.3
2018-Feb-12 18:59N 34°35' E 138°51'4 7.5
2018-Feb-12 18:29N 34°36' E 138°55'7 8.8
2018-Feb-12 17:43N 34°40' E 139°02'2 9.2
2018-Feb-12 17:29N 34°41' E 139°03'7 9.2
2018-Feb-12 16:45N 34°46' E 139°08'2 8.8
2018-Feb-12 16:28N 34°48' E 139°11'  
2018-Feb-09 09:00N 35°26' E 139°46'611.1
2018-Feb-09 08:30N 35°30' E 139°51'  

Dump ship's entire track history